Time;durP1;ratioP1;P1;durP2;ratioP2;P2;SDS_P1;SDS_P2;PMS_P1;PMS_P2;Temp;Humidity;BMP_temperature;BMP_pressure;BME280_temperature;BME280_humidity;BME280_pressure;Samples;Min_cycle;Max_cycle;Signal;HPM_P1;HPM_P2
2023/01/29 00:01:49;;;;;;;;;17.33;11.00;;;;;;;;5030784;28;8823;-66
2023/01/29 00:04:14;;;;;;;;;17.00;14.00;;;;;;;;5029332;28;8826;-67
2023/01/29 00:06:40;;;;;;;;;18.00;14.00;;;;;;;;5030642;28;8871;-67
2023/01/29 00:09:05;;;;;;;;;17.00;15.00;;;;;;;;5030473;28;8800;-67
2023/01/29 00:11:30;;;;;;;;;18.67;16.33;;;;;;;;5030026;28;8906;-67
2023/01/29 00:13:56;;;;;;;;;22.33;16.67;;;;;;;;5030667;28;8811;-66
2023/01/29 00:16:21;;;;;;;;;14.67;14.67;;;;;;;;5030492;28;8982;-67
2023/01/29 00:18:47;;;;;;;;;15.00;13.00;;;;;;;;5030552;28;8924;-69
2023/01/29 00:21:14;;;;;;;;;20.67;14.33;;;;;;;;5030370;28;8808;-67
2023/01/29 00:23:39;;;;;;;;;19.00;17.00;;;;;;;;5030494;28;8961;-67
2023/01/29 00:26:05;;;;;;;;;14.67;13.33;;;;;;;;5030168;28;8868;-67
2023/01/29 00:28:30;;;;;;;;;16.00;15.00;;;;;;;;5029922;28;8909;-67
2023/01/29 00:30:55;;;;;;;;;19.33;17.67;;;;;;;;5030239;28;8776;-68
2023/01/29 00:33:20;;;;;;;;;23.67;14.33;;;;;;;;5030125;28;8823;-67
2023/01/29 00:35:46;;;;;;;;;21.33;17.33;;;;;;;;5030133;28;8788;-66
2023/01/29 00:38:11;;;;;;;;;17.00;14.00;;;;;;;;5029892;28;8939;-66
2023/01/29 00:46:05;;;;;;;;;19.00;14.67;;;;;;;;5029668;28;8804;-67
2023/01/29 00:48:31;;;;;;;;;23.67;16.67;;;;;;;;5029844;28;8922;-67
2023/01/29 00:50:56;;;;;;;;;19.33;14.00;;;;;;;;5029722;28;8800;-67
2023/01/29 00:53:21;;;;;;;;;19.67;17.33;;;;;;;;5029720;28;8816;-67
2023/01/29 00:55:46;;;;;;;;;18.00;17.00;;;;;;;;5029754;28;8925;-67
2023/01/29 00:58:11;;;;;;;;;20.67;18.00;;;;;;;;5028523;28;8970;-67
2023/01/29 01:00:37;;;;;;;;;17.00;17.00;;;;;;;;5029692;28;9482;-67
2023/01/29 01:03:05;;;;;;;;;21.00;18.33;;;;;;;;5029786;28;8816;-67
2023/01/29 01:05:30;;;;;;;;;16.67;13.33;;;;;;;;5029182;28;8808;-68
2023/01/29 01:07:56;;;;;;;;;23.33;16.33;;;;;;;;5029496;28;8804;-67
2023/01/29 01:10:26;;;;;;;;;17.67;17.67;;;;;;;;5029437;28;8909;-67
2023/01/29 01:12:56;;;;;;;;;18.33;13.67;;;;;;;;5029466;28;8916;-68
2023/01/29 01:15:23;;;;;;;;;16.67;16.67;;;;;;;;5029474;28;9097;-66
2023/01/29 01:17:56;;;;;;;;;20.67;16.67;;;;;;;;5029551;28;8825;-66
2023/01/29 01:20:22;;;;;;;;;21.00;16.33;;;;;;;;5029424;28;8903;-67
2023/01/29 01:22:47;;;;;;;;;16.00;13.00;;;;;;;;5028675;28;8935;-67
2023/01/29 01:25:13;;;;;;;;;19.67;16.00;;;;;;;;5029079;28;8902;-66
2023/01/29 01:27:40;;;;;;;;;23.33;14.00;;;;;;;;5027909;28;8847;-67
2023/01/29 01:30:09;;;;;;;;;16.33;14.67;;;;;;;;5029376;28;8788;-67
2023/01/29 01:32:35;;;;;;;;;16.00;13.00;;;;;;;;5029146;28;8892;-68
2023/01/29 01:35:00;;;;;;;;;14.00;14.00;;;;;;;;5028298;28;8815;-67
2023/01/29 01:37:25;;;;;;;;;17.00;13.00;;;;;;;;5028151;28;8854;-67
2023/01/29 01:39:50;;;;;;;;;15.33;14.00;;;;;;;;5031735;28;8796;-68
2023/01/29 01:42:16;;;;;;;;;17.67;16.00;;;;;;;;5029287;28;8922;-68
2023/01/29 01:44:50;;;;;;;;;14.67;14.67;;;;;;;;5029105;28;8838;-68
2023/01/29 07:38:11;;;;;;;;;8.00;8.00;;;;;;;;5108434;27;13435;-77
2023/01/29 07:40:36;;;;;;;;;7.00;3.33;;;;;;;;5108012;28;8792;-78
2023/01/29 07:43:02;;;;;;;;;9.00;6.25;;;;;;;;5107079;28;8832;-76
2023/01/29 07:45:28;;;;;;;;;12.75;8.00;;;;;;;;5108405;28;8818;-78
2023/01/29 07:47:54;;;;;;;;;8.00;6.00;;;;;;;;5097489;28;11517;-76
2023/01/29 07:50:19;;;;;;;;;6.75;6.75;;;;;;;;5099287;28;8788;-77
2023/01/29 07:52:45;;;;;;;;;8.00;7.00;;;;;;;;5107761;28;8815;-77
2023/01/29 07:55:10;;;;;;;;;10.00;8.00;;;;;;;;5107459;28;8973;-77
2023/01/29 07:57:35;;;;;;;;;12.50;8.25;;;;;;;;5107884;28;8799;-74
2023/01/29 08:00:01;;;;;;;;;7.50;7.25;;;;;;;;5108136;28;8819;-77
2023/01/29 08:02:26;;;;;;;;;8.50;7.75;;;;;;;;5107737;28;8795;-81
2023/01/29 08:04:51;;;;;;;;;7.50;7.50;;;;;;;;5107933;28;8882;-80
2023/01/29 08:07:16;;;;;;;;;10.75;8.25;;;;;;;;5107509;28;8826;-78
2023/01/29 08:09:42;;;;;;;;;9.00;6.50;;;;;;;;5105623;28;8804;-76
2023/01/29 08:12:07;;;;;;;;;9.50;8.00;;;;;;;;5105687;28;8950;-81
2023/01/29 08:14:32;;;;;;;;;9.50;8.50;;;;;;;;5107107;28;8800;-79
2023/01/29 08:16:57;;;;;;;;;7.25;7.25;;;;;;;;5107274;28;8803;-75
2023/01/29 08:19:23;;;;;;;;;10.75;8.00;;;;;;;;5107956;28;8795;-73
2023/01/29 08:21:48;;;;;;;;;7.25;7.25;;;;;;;;5112038;27;8757;-78
2023/01/29 08:24:13;;;;;;;;;6.50;5.25;;;;;;;;5127118;27;8813;-79
2023/01/29 08:26:38;;;;;;;;;7.75;6.75;;;;;;;;5113700;28;8794;-78
2023/01/29 08:29:04;;;;;;;;;6.25;6.25;;;;;;;;5096222;28;8811;-76
2023/01/29 08:31:29;;;;;;;;;6.25;6.00;;;;;;;;5086794;28;8810;-76
2023/01/29 08:33:54;;;;;;;;;10.00;5.75;;;;;;;;5086682;28;8836;-77
2023/01/29 08:36:20;;;;;;;;;6.25;6.25;;;;;;;;5084733;28;8834;-77
2023/01/29 08:38:45;;;;;;;;;6.00;5.00;;;;;;;;5085032;28;8818;-76
2023/01/29 08:41:10;;;;;;;;;6.25;5.50;;;;;;;;5084716;28;8806;-76
2023/01/29 08:43:35;;;;;;;;;6.00;4.00;;;;;;;;5083367;28;8834;-73
2023/01/29 08:46:02;;;;;;;;;5.25;5.25;;;;;;;;5085400;28;8961;-72
2023/01/29 08:48:29;;;;;;;;;8.75;6.00;;;;;;;;5079128;28;8778;-74
2023/01/29 08:50:56;;;;;;;;;5.25;4.00;;;;;;;;5073020;28;11445;-74
2023/01/29 08:53:23;;;;;;;;;4.75;4.75;;;;;;;;5085932;28;11417;-75
2023/01/29 08:55:49;;;;;;;;;4.00;4.00;;;;;;;;5112171;28;11450;-74
2023/01/29 08:58:14;;;;;;;;;4.75;4.00;;;;;;;;5113578;28;11412;-74
2023/01/29 09:00:39;;;;;;;;;8.50;4.00;;;;;;;;5113311;28;8797;-74
2023/01/29 09:03:06;;;;;;;;;6.00;4.00;;;;;;;;5113827;28;8785;-75
2023/01/29 09:05:31;;;;;;;;;8.75;5.00;;;;;;;;5112397;28;8817;-77
2023/01/29 09:07:57;;;;;;;;;8.00;4.75;;;;;;;;5113670;28;11504;-78
2023/01/29 09:10:22;;;;;;;;;4.75;3.00;;;;;;;;5113758;28;8814;-77
2023/01/29 11:44:54;;;;;;;;;6.50;5.00;;;;;;;;5103531;27;13471;-74
2023/01/29 11:47:22;;;;;;;;;6.25;5.00;;;;;;;;5085638;28;10171;-77
2023/01/29 11:49:52;;;;;;;;;5.00;5.00;;;;;;;;5086010;28;8814;-78
2023/01/29 11:52:19;;;;;;;;;5.50;5.50;;;;;;;;5086234;28;10598;-77
2023/01/29 11:54:56;;;;;;;;;4.00;3.25;;;;;;;;5082002;28;10719;-76
2023/01/29 16:20:44;;;;;;;;;7.33;7.33;;;;;;;;5057726;27;13462;-74
2023/01/29 16:23:17;;;;;;;;;8.33;6.67;;;;;;;;5024841;28;8841;-76
2023/01/29 16:25:43;;;;;;;;;7.67;7.33;;;;;;;;5024576;28;9955;-78
2023/01/29 16:28:09;;;;;;;;;6.33;6.00;;;;;;;;5026667;28;8945;-79
2023/01/29 16:30:35;;;;;;;;;8.00;7.67;;;;;;;;5025220;28;8884;-76
2023/01/29 16:33:04;;;;;;;;;11.00;8.67;;;;;;;;5026979;28;11477;-86
2023/01/29 16:35:30;;;;;;;;;12.67;10.67;;;;;;;;5021618;28;13499;-81
2023/01/29 16:38:02;;;;;;;;;15.33;12.33;;;;;;;;5038859;28;11603;-87
2023/01/29 16:40:31;;;;;;;;;12.00;10.50;;;;;;;;5019208;28;13605;-81
2023/01/29 16:43:15;;;;;;;;;11.50;9.00;;;;;;;;5025797;28;11586;-82
2023/01/29 16:45:41;;;;;;;;;13.00;9.25;;;;;;;;5023924;28;11530;-78
2023/01/29 16:48:26;;;;;;;;;11.75;9.75;;;;;;;;5024091;28;11539;-75
2023/01/29 16:51:01;;;;;;;;;10.50;8.25;;;;;;;;5021779;28;8795;-77
2023/01/29 16:53:26;;;;;;;;;10.50;9.00;;;;;;;;5041842;28;11548;-77
2023/01/29 16:55:52;;;;;;;;;13.67;8.67;;;;;;;;5024327;28;12310;-79
2023/01/29 16:58:23;;;;;;;;;17.75;14.00;;;;;;;;5035102;28;13591;-78
2023/01/29 17:00:54;;;;;;;;;12.25;9.00;;;;;;;;5022581;28;8802;-78
2023/01/29 17:03:20;;;;;;;;;13.67;12.00;;;;;;;;5025219;28;11584;-77
2023/01/29 17:05:45;;;;;;;;;14.33;10.33;;;;;;;;5025991;28;11572;-78
2023/01/29 17:08:21;;;;;;;;;21.00;16.50;;;;;;;;5024110;28;13602;-79
2023/01/29 17:10:47;;;;;;;;;17.00;14.33;;;;;;;;5019818;28;13542;-78
2023/01/29 17:13:17;;;;;;;;;10.50;9.25;;;;;;;;5025448;28;11595;-76
2023/01/29 17:15:46;;;;;;;;;10.75;10.50;;;;;;;;5023111;28;13968;-78
2023/01/29 17:18:19;;;;;;;;;12.75;12.00;;;;;;;;5037301;28;11552;-78
2023/01/29 17:20:44;;;;;;;;;19.50;10.50;;;;;;;;5022931;28;11625;-76
2023/01/29 17:23:09;;;;;;;;;12.00;12.00;;;;;;;;5038496;28;11536;-81
2023/01/29 17:25:35;;;;;;;;;18.67;17.67;;;;;;;;5022058;28;13650;-72
2023/01/29 17:28:01;;;;;;;;;17.67;15.00;;;;;;;;5019181;28;14241;-78
2023/01/29 17:30:28;;;;;;;;;15.00;12.67;;;;;;;;5016281;28;10474;-80
2023/01/29 17:32:54;;;;;;;;;16.00;12.67;;;;;;;;5012926;28;11546;-79
2023/01/29 17:35:19;;;;;;;;;13.00;10.33;;;;;;;;5048555;22;11832;-66
2023/01/29 17:37:44;;;;;;;;;11.00;10.33;;;;;;;;5031100;28;8813;-66
2023/01/29 17:40:30;;;;;;;;;9.67;6.67;;;;;;;;5028963;28;8826;-66
2023/01/29 17:42:55;;;;;;;;;17.33;12.33;;;;;;;;5023835;28;8930;-69
2023/01/29 17:45:21;;;;;;;;;18.33;12.33;;;;;;;;5024538;28;11743;-67
2023/01/29 17:47:46;;;;;;;;;11.00;11.00;;;;;;;;5027583;28;9500;-68
2023/01/29 17:50:22;;;;;;;;;20.00;15.33;;;;;;;;5021856;28;14153;-68
2023/01/29 17:52:47;;;;;;;;;14.33;12.00;;;;;;;;5029553;28;11586;-68
2023/01/29 17:55:13;;;;;;;;;11.00;9.00;;;;;;;;5030497;28;8809;-68
2023/01/29 17:57:38;;;;;;;;;18.00;14.00;;;;;;;;5026526;28;14310;-68
2023/01/29 18:00:12;;;;;;;;;12.67;11.33;;;;;;;;5027606;28;9593;-69
2023/01/29 18:02:37;;;;;;;;;12.00;9.00;;;;;;;;5036465;28;8844;-68
2023/01/29 18:05:03;;;;;;;;;11.00;9.00;;;;;;;;5021338;28;11500;-70
2023/01/29 18:07:28;;;;;;;;;23.00;20.50;;;;;;;;5018683;28;13537;-68
2023/01/29 18:09:53;;;;;;;;;16.33;13.00;;;;;;;;5021750;28;13509;-68
2023/01/29 18:12:18;;;;;;;;;12.67;12.67;;;;;;;;5045183;28;8817;-68
2023/01/29 18:14:44;;;;;;;;;12.75;12.50;;;;;;;;5029991;28;8916;-67
2023/01/29 18:17:09;;;;;;;;;12.00;9.67;;;;;;;;5042162;28;8797;-67
2023/01/29 18:19:34;;;;;;;;;15.00;12.00;;;;;;;;5027211;28;8833;-68
2023/01/29 18:21:59;;;;;;;;;14.33;12.00;;;;;;;;5030293;28;8786;-67
2023/01/29 18:24:25;;;;;;;;;19.33;12.33;;;;;;;;5030053;28;8789;-68
2023/01/29 18:26:51;;;;;;;;;19.00;18.00;;;;;;;;5023009;28;14385;-68
2023/01/29 18:29:16;;;;;;;;;15.67;12.00;;;;;;;;5017624;28;8868;-68
2023/01/29 18:31:41;;;;;;;;;20.50;18.00;;;;;;;;5026007;28;14205;-68
2023/01/29 18:34:06;;;;;;;;;11.67;10.33;;;;;;;;5029455;28;8848;-68
2023/01/29 18:36:32;;;;;;;;;13.67;12.33;;;;;;;;5045854;22;8913;-71
2023/01/29 18:38:57;;;;;;;;;19.00;17.75;;;;;;;;5024117;28;13563;-71
2023/01/29 18:41:22;;;;;;;;;24.00;20.00;;;;;;;;5024278;28;13561;-73
2023/01/29 18:43:48;;;;;;;;;20.75;19.25;;;;;;;;5039963;28;14307;-73
2023/01/29 18:46:14;;;;;;;;;19.25;18.25;;;;;;;;5025775;28;13655;-74
2023/01/29 18:48:39;;;;;;;;;23.25;19.00;;;;;;;;5025999;28;13564;-73
2023/01/29 18:51:04;;;;;;;;;19.50;17.75;;;;;;;;5024131;28;13522;-75
2023/01/29 18:53:31;;;;;;;;;17.75;17.25;;;;;;;;5025689;28;13646;-69
2023/01/29 18:55:57;;;;;;;;;19.60;18.00;;;;;;;;5025763;28;14183;-74
2023/01/29 18:58:23;;;;;;;;;18.80;18.00;;;;;;;;5024804;28;13585;-74
2023/01/29 19:00:48;;;;;;;;;21.50;20.50;;;;;;;;5024591;28;13622;-73
2023/01/29 19:03:13;;;;;;;;;16.33;16.33;;;;;;;;5040744;28;13598;-72
2023/01/29 19:05:38;;;;;;;;;28.75;22.50;;;;;;;;5025592;28;14374;-70
2023/01/29 19:08:04;;;;;;;;;;;;;;;;;;5031211;28;8927;-70
2023/01/29 19:10:29;;;;;;;;;;;;;;;;;;5030211;28;7564;-71
2023/01/29 19:12:54;;;;;;;;;;;;;;;;;;5030317;28;7525;-69
2023/01/29 19:15:21;;;;;;;;;;;;;;;;;;5031357;28;7521;-90
2023/01/29 19:17:46;;;;;;;;;;;;;;;;;;5029692;28;7537;-70
2023/01/29 19:20:11;;;;;;;;;;;;;;;;;;5029654;28;7532;-70
2023/01/29 19:22:36;;;;;;;;;;;;;;;;;;5030977;28;7537;-70
2023/01/29 19:25:02;;;;;;;;;;;;;;;;;;5030694;28;7549;-72
2023/01/29 19:27:29;;;;;;;;;;;;;;;;;;5028489;28;7583;-71
2023/01/29 19:29:54;;;;;;;;;;;;;;;;;;5028690;28;7544;-72
2023/01/29 19:32:19;;;;;;;;;;;;;;;;;;5028951;28;7537;-71
2023/01/29 19:36:03;;;;;;;;;20.67;15.67;;;;;;;;5102749;27;13436;-69
2023/01/29 19:38:32;;;;;;;;;16.00;13.00;;;;;;;;5105611;28;8808;-71
2023/01/29 19:40:58;;;;;;;;;19.67;12.00;;;;;;;;5105881;28;8827;-73
2023/01/29 19:43:23;;;;;;;;;20.00;15.00;;;;;;;;5105637;28;8854;-71
2023/01/29 19:45:49;;;;;;;;;19.00;13.00;;;;;;;;5105963;28;8967;-71
2023/01/29 19:48:19;;;;;;;;;14.33;11.33;;;;;;;;5105797;28;8934;-71
2023/01/29 19:50:49;;;;;;;;;18.33;16.00;;;;;;;;5105994;28;11583;-71
2023/01/29 19:53:14;;;;;;;;;13.00;13.00;;;;;;;;5103549;28;8853;-71
2023/01/29 19:55:39;;;;;;;;;16.67;13.00;;;;;;;;5105992;28;8812;-71
2023/01/29 19:58:05;;;;;;;;;15.67;15.67;;;;;;;;5105532;28;8791;-73
2023/01/29 20:00:30;;;;;;;;;16.00;16.00;;;;;;;;5106245;28;8826;-70
2023/01/29 20:02:55;;;;;;;;;26.67;23.00;;;;;;;;5105766;28;8784;-76
2023/01/29 20:05:22;;;;;;;;;29.67;25.33;;;;;;;;5105918;28;8804;-69
2023/01/29 20:07:48;;;;;;;;;30.00;25.00;;;;;;;;5105912;28;8780;-72
2023/01/29 20:10:15;;;;;;;;;28.33;18.33;;;;;;;;5102323;28;8804;-71
2023/01/29 20:12:42;;;;;;;;;18.33;18.33;;;;;;;;5105525;28;8788;-72
2023/01/29 20:15:09;;;;;;;;;21.33;21.33;;;;;;;;5104237;28;8839;-72
2023/01/29 20:17:34;;;;;;;;;24.00;15.33;;;;;;;;5102938;28;8780;-71
2023/01/29 20:20:00;;;;;;;;;19.00;18.00;;;;;;;;5106405;28;8915;-71
2023/01/29 20:22:25;;;;;;;;;26.67;23.00;;;;;;;;5104394;28;8819;-72
2023/01/29 20:24:50;;;;;;;;;25.33;18.67;;;;;;;;5105810;28;8918;-69
2023/01/29 20:27:16;;;;;;;;;25.00;23.67;;;;;;;;5105020;28;8788;-69
2023/01/29 20:29:42;;;;;;;;;19.67;18.33;;;;;;;;5105973;28;8788;-69
2023/01/29 20:32:08;;;;;;;;;25.00;21.00;;;;;;;;5105792;28;8792;-71
2023/01/29 20:34:33;;;;;;;;;18.67;16.00;;;;;;;;5103754;28;8920;-68
2023/01/29 20:36:58;;;;;;;;;21.67;18.00;;;;;;;;5103940;28;8820;-69
2023/01/29 20:39:24;;;;;;;;;29.67;21.00;;;;;;;;5105625;27;9877;-72
2023/01/29 20:41:49;;;;;;;;;24.33;24.33;;;;;;;;5100482;28;8932;-71
2023/01/29 20:44:14;;;;;;;;;25.67;24.33;;;;;;;;5101973;28;8832;-69
2023/01/29 20:46:41;;;;;;;;;19.67;15.00;;;;;;;;5093228;28;8851;-69
2023/01/29 20:49:06;;;;;;;;;22.00;18.33;;;;;;;;5090422;28;8824;-71
2023/01/29 20:51:32;;;;;;;;;22.67;17.33;;;;;;;;5091268;28;8873;-72
2023/01/29 20:53:57;;;;;;;;;17.33;15.00;;;;;;;;5089819;28;8820;-71
2023/01/29 20:56:23;;;;;;;;;15.00;14.67;;;;;;;;5091492;28;8787;-71
2023/01/29 20:58:48;;;;;;;;;15.00;12.67;;;;;;;;5104674;28;9554;-71
2023/01/29 21:01:15;;;;;;;;;21.00;18.00;;;;;;;;5094751;28;9996;-73
2023/01/29 21:03:40;;;;;;;;;17.33;15.33;;;;;;;;5060857;28;8787;-72
2023/01/29 21:06:06;;;;;;;;;25.50;21.50;;;;;;;;5056757;28;13472;-71
2023/01/29 21:08:34;;;;;;;;;18.67;18.33;;;;;;;;5055626;28;13650;-73
2023/01/29 21:10:59;;;;;;;;;18.33;16.00;;;;;;;;5051123;28;13520;-74
2023/01/29 21:13:24;;;;;;;;;22.00;19.67;;;;;;;;5052211;28;8822;-75
2023/01/29 21:15:49;;;;;;;;;18.33;16.33;;;;;;;;5064547;28;13556;-77
2023/01/29 21:18:15;;;;;;;;;23.33;19.33;;;;;;;;5056309;28;14164;-74
2023/01/29 21:20:40;;;;;;;;;22.00;18.00;;;;;;;;5049725;28;13543;-74
2023/01/29 21:23:05;;;;;;;;;17.67;13.00;;;;;;;;5054087;28;8814;-79
2023/01/29 21:25:30;;;;;;;;;24.67;23.33;;;;;;;;5058461;28;13522;-76
2023/01/29 21:27:56;;;;;;;;;25.25;22.50;;;;;;;;5053893;28;13581;-78
2023/01/29 21:30:21;;;;;;;;;20.67;16.00;;;;;;;;5058544;28;13497;-78
2023/01/29 21:32:47;;;;;;;;;24.67;18.33;;;;;;;;5057175;28;13502;-74
2023/01/29 21:35:13;;;;;;;;;16.00;14.00;;;;;;;;5059008;28;8917;-73
2023/01/29 21:37:38;;;;;;;;;30.75;26.50;;;;;;;;5055206;28;14318;-72
2023/01/29 21:40:04;;;;;;;;;33.00;23.00;;;;;;;;5050805;28;13472;-73
2023/01/29 21:45:14;;;;;;;;;43.75;40.00;;;;;;;;5057624;28;14271;-72
2023/01/29 21:47:40;;;;;;;;;45.33;36.33;;;;;;;;5053985;28;13581;-73
2023/01/29 21:50:05;;;;;;;;;33.00;27.67;;;;;;;;5050670;28;13510;-72
2023/01/29 21:52:30;;;;;;;;;48.75;43.25;;;;;;;;5057405;28;13504;-72
2023/01/29 21:54:56;;;;;;;;;47.33;40.33;;;;;;;;5055153;28;13640;-71
2023/01/29 21:57:25;;;;;;;;;51.33;41.00;;;;;;;;5053092;28;13570;-73
2023/01/29 21:59:50;;;;;;;;;43.33;40.00;;;;;;;;5053069;28;13543;-72
2023/01/29 22:02:15;;;;;;;;;47.00;40.33;;;;;;;;5048611;28;13563;-73
2023/01/29 22:04:41;;;;;;;;;42.00;40.67;;;;;;;;5059733;28;13547;-73
2023/01/29 22:07:07;;;;;;;;;47.67;41.67;;;;;;;;5055543;28;13542;-72
2023/01/29 22:09:32;;;;;;;;;43.50;38.25;;;;;;;;5043853;28;13777;-72
2023/01/29 22:11:57;;;;;;;;;39.00;36.00;;;;;;;;5045404;28;13766;-73
2023/01/29 22:14:22;;;;;;;;;30.33;27.33;;;;;;;;5049412;28;8818;-86
2023/01/29 22:16:48;;;;;;;;;51.50;43.25;;;;;;;;5046935;28;13612;-78
2023/01/29 22:19:13;;;;;;;;;54.25;41.50;;;;;;;;5045299;28;14384;-79
2023/01/29 22:21:38;;;;;;;;;54.75;43.50;;;;;;;;5045409;28;13640;-79
2023/01/29 22:24:04;;;;;;;;;44.00;39.25;;;;;;;;5046343;28;13627;-79
2023/01/29 22:26:30;;;;;;;;;38.67;30.33;;;;;;;;5045038;28;8809;-79
2023/01/29 22:28:56;;;;;;;;;49.60;42.20;;;;;;;;5030918;28;13572;-79
2023/01/29 22:31:21;;;;;;;;;46.00;43.25;;;;;;;;5033314;28;13761;-77
2023/01/29 22:33:47;;;;;;;;;39.33;30.33;;;;;;;;5030148;28;8908;-78
2023/01/29 22:36:12;;;;;;;;;60.67;45.67;;;;;;;;5026616;28;13610;-77
2023/01/29 22:38:37;;;;;;;;;46.00;41.00;;;;;;;;5026613;28;13555;-76
2023/01/29 22:41:03;;;;;;;;;45.00;42.00;;;;;;;;5025129;28;13775;-76
2023/01/29 22:43:28;;;;;;;;;45.00;41.00;;;;;;;;5024625;28;13614;-77
2023/01/29 22:45:55;;;;;;;;;42.50;40.75;;;;;;;;5026577;28;14247;-76
2023/01/29 22:48:21;;;;;;;;;42.75;40.75;;;;;;;;5026329;28;13518;-75
2023/01/29 22:50:51;;;;;;;;;38.00;33.60;;;;;;;;5026064;28;13566;-76
2023/01/29 22:53:16;;;;;;;;;45.20;32.40;;;;;;;;5026090;28;13665;-75
2023/01/29 22:55:42;;;;;;;;;51.25;35.50;;;;;;;;5029840;28;14337;-76
2023/01/29 22:58:07;;;;;;;;;34.00;33.67;;;;;;;;5045775;28;13514;-76
2023/01/29 23:00:32;;;;;;;;;36.25;35.50;;;;;;;;5045961;28;13550;-76
2023/01/29 23:02:57;;;;;;;;;36.67;35.33;;;;;;;;5045661;28;14250;-77
2023/01/29 23:05:23;;;;;;;;;44.00;38.33;;;;;;;;5045626;28;13516;-76
2023/01/29 23:07:48;;;;;;;;;39.33;36.00;;;;;;;;5045887;28;13513;-78
2023/01/29 23:10:13;;;;;;;;;38.75;36.75;;;;;;;;5045542;28;13696;-77
2023/01/29 23:12:39;;;;;;;;;36.00;30.00;;;;;;;;5045594;28;13541;-77
2023/01/29 23:15:05;;;;;;;;;40.00;36.75;;;;;;;;5045610;28;13548;-77
2023/01/29 23:17:30;;;;;;;;;34.80;34.20;;;;;;;;5061169;28;13623;-76
2023/01/29 23:19:55;;;;;;;;;36.67;33.00;;;;;;;;5046049;28;13502;-76
2023/01/29 23:22:20;;;;;;;;;28.67;28.67;;;;;;;;5045926;28;13749;-75
2023/01/29 23:24:46;;;;;;;;;36.00;34.00;;;;;;;;5045948;28;13692;-78
2023/01/29 23:27:14;;;;;;;;;34.25;29.00;;;;;;;;5044218;28;13555;-76
2023/01/29 23:29:40;;;;;;;;;44.80;36.40;;;;;;;;5045524;28;13511;-77
2023/01/29 23:32:06;;;;;;;;;32.60;28.20;;;;;;;;5045933;28;13555;-78
2023/01/29 23:34:31;;;;;;;;;33.00;31.00;;;;;;;;5045682;28;14425;-78
2023/01/29 23:36:57;;;;;;;;;33.50;31.50;;;;;;;;5045632;28;13496;-77
2023/01/29 23:39:22;;;;;;;;;39.25;36.25;;;;;;;;5045434;28;14336;-76
2023/01/29 23:41:47;;;;;;;;;32.00;32.00;;;;;;;;5045353;28;13687;-76
2023/01/29 23:44:12;;;;;;;;;45.75;34.50;;;;;;;;5045373;28;13534;-76
2023/01/29 23:46:38;;;;;;;;;39.75;32.25;;;;;;;;5045360;28;13557;-76
2023/01/29 23:49:03;;;;;;;;;40.00;36.75;;;;;;;;5045107;28;14299;-76
2023/01/29 23:51:28;;;;;;;;;33.67;29.00;;;;;;;;5045240;28;13541;-77
2023/01/29 23:53:54;;;;;;;;;34.33;31.67;;;;;;;;5045087;28;14155;-78
2023/01/29 23:56:19;;;;;;;;;42.00;34.33;;;;;;;;5045300;28;13585;-76
2023/01/29 23:58:44;;;;;;;;;39.25;33.00;;;;;;;;5045202;28;13519;-78
